sensor_id;sensor_type;location;lat;lon;timestamp;pressure;altitude;pressure_sealevel;temperature;humidity
13367;BME280;6752;52.612;13.630;2023-06-04T00:03:11;101508.36;;;8.19;64.87
13367;BME280;6752;52.612;13.630;2023-06-04T00:08:13;101512.77;;;8.01;66.85
13367;BME280;6752;52.612;13.630;2023-06-04T00:13:16;101501.61;;;7.96;66.22
13367;BME280;6752;52.612;13.630;2023-06-04T00:18:18;101499.93;;;7.95;65.04
13367;BME280;6752;52.612;13.630;2023-06-04T00:23:21;101502.07;;;7.84;66.68
13367;BME280;6752;52.612;13.630;2023-06-04T00:28:23;101500.67;;;7.89;66.91
13367;BME280;6752;52.612;13.630;2023-06-04T00:33:25;101495.23;;;7.81;67.40
13367;BME280;6752;52.612;13.630;2023-06-04T00:38:28;101494.77;;;7.74;68.91
13367;BME280;6752;52.612;13.630;2023-06-04T00:43:30;101491.25;;;7.69;69.79
13367;BME280;6752;52.612;13.630;2023-06-04T00:48:33;101489.27;;;7.63;69.85
13367;BME280;6752;52.612;13.630;2023-06-04T00:53:35;101486.60;;;7.55;70.81
13367;BME280;6752;52.612;13.630;2023-06-04T00:58:38;101478.28;;;7.57;70.29
13367;BME280;6752;52.612;13.630;2023-06-04T01:03:41;101496.39;;;7.41;70.46
13367;BME280;6752;52.612;13.630;2023-06-04T01:08:43;101497.56;;;7.43;70.55
13367;BME280;6752;52.612;13.630;2023-06-04T01:13:46;101490.48;;;7.38;69.75
13367;BME280;6752;52.612;13.630;2023-06-04T01:18:52;101497.69;;;7.38;68.48
13367;BME280;6752;52.612;13.630;2023-06-04T01:23:54;101494.41;;;7.20;70.19
13367;BME280;6752;52.612;13.630;2023-06-04T01:29:00;101491.91;;;7.14;69.34
13367;BME280;6752;52.612;13.630;2023-06-04T01:34:03;101490.69;;;7.01;70.13
13367;BME280;6752;52.612;13.630;2023-06-04T01:39:09;101489.17;;;6.87;74.10
13367;BME280;6752;52.612;13.630;2023-06-04T01:44:12;101489.30;;;7.05;73.09
13367;BME280;6752;52.612;13.630;2023-06-04T01:49:14;101489.88;;;6.97;71.40
13367;BME280;6752;52.612;13.630;2023-06-04T01:54:16;101486.04;;;6.87;73.00
13367;BME280;6752;52.612;13.630;2023-06-04T01:59:19;101476.38;;;6.84;72.19
13367;BME280;6752;52.612;13.630;2023-06-04T02:04:21;101472.33;;;6.61;73.35
13367;BME280;6752;52.612;13.630;2023-06-04T02:09:24;101473.00;;;6.67;72.02
13367;BME280;6752;52.612;13.630;2023-06-04T02:14:26;101476.50;;;6.56;70.58
13367;BME280;6752;52.612;13.630;2023-06-04T02:19:28;101475.59;;;6.52;71.14
13367;BME280;6752;52.612;13.630;2023-06-04T02:24:30;101472.77;;;6.33;72.97
13367;BME280;6752;52.612;13.630;2023-06-04T02:29:33;101473.02;;;6.35;72.31
13367;BME280;6752;52.612;13.630;2023-06-04T02:34:35;101474.33;;;6.24;71.01
13367;BME280;6752;52.612;13.630;2023-06-04T02:39:37;101477.30;;;6.21;71.51
13367;BME280;6752;52.612;13.630;2023-06-04T02:44:40;101472.93;;;6.04;72.30
13367;BME280;6752;52.612;13.630;2023-06-04T02:49:42;101477.23;;;6.06;72.39
13367;BME280;6752;52.612;13.630;2023-06-04T02:54:44;101478.84;;;5.83;73.87
13367;BME280;6752;52.612;13.630;2023-06-04T02:59:47;101479.59;;;5.89;73.44
13367;BME280;6752;52.612;13.630;2023-06-04T03:04:49;101481.97;;;5.83;74.19
13367;BME280;6752;52.612;13.630;2023-06-04T03:09:52;101480.05;;;5.73;75.67
13367;BME280;6752;52.612;13.630;2023-06-04T03:14:54;101478.42;;;5.59;77.39
13367;BME280;6752;52.612;13.630;2023-06-04T03:19:56;101480.38;;;5.78;76.52
13367;BME280;6752;52.612;13.630;2023-06-04T03:24:59;101482.73;;;5.77;77.47
13367;BME280;6752;52.612;13.630;2023-06-04T03:30:01;101482.16;;;5.90;75.87
13367;BME280;6752;52.612;13.630;2023-06-04T03:35:03;101483.50;;;5.74;79.65
13367;BME280;6752;52.612;13.630;2023-06-04T03:40:06;101482.82;;;5.80;81.00
13367;BME280;6752;52.612;13.630;2023-06-04T03:45:08;101481.88;;;5.88;84.38
13367;BME280;6752;52.612;13.630;2023-06-04T03:50:10;101480.69;;;6.19;84.54
13367;BME280;6752;52.612;13.630;2023-06-04T03:55:13;101478.34;;;6.36;86.74
13367;BME280;6752;52.612;13.630;2023-06-04T04:00:15;101478.92;;;6.82;84.24
13367;BME280;6752;52.612;13.630;2023-06-04T04:05:17;101475.16;;;7.06;89.05
13367;BME280;6752;52.612;13.630;2023-06-04T04:10:19;101481.42;;;7.11;88.42
13367;BME280;6752;52.612;13.630;2023-06-04T04:15:22;101480.92;;;7.46;88.38
13367;BME280;6752;52.612;13.630;2023-06-04T04:20:24;101479.84;;;7.93;87.75
13367;BME280;6752;52.612;13.630;2023-06-04T04:25:26;101478.30;;;8.28;86.12
13367;BME280;6752;52.612;13.630;2023-06-04T04:30:29;101480.69;;;8.60;85.14
13367;BME280;6752;52.612;13.630;2023-06-04T04:35:31;101480.27;;;9.00;86.67
13367;BME280;6752;52.612;13.630;2023-06-04T04:40:34;101485.34;;;9.53;84.82
13367;BME280;6752;52.612;13.630;2023-06-04T04:45:36;101487.32;;;10.15;79.61
13367;BME280;6752;52.612;13.630;2023-06-04T04:50:38;101488.23;;;10.68;76.27
13367;BME280;6752;52.612;13.630;2023-06-04T04:55:39;101486.57;;;10.94;74.78
13367;BME280;6752;52.612;13.630;2023-06-04T05:00:42;101484.31;;;11.48;75.31
13367;BME280;6752;52.612;13.630;2023-06-04T05:05:44;101484.71;;;11.85;74.47
13367;BME280;6752;52.612;13.630;2023-06-04T05:10:46;101479.94;;;12.36;69.05
13367;BME280;6752;52.612;13.630;2023-06-04T05:15:48;101483.28;;;12.83;67.80
13367;BME280;6752;52.612;13.630;2023-06-04T05:20:50;101474.39;;;13.39;66.50
13367;BME280;6752;52.612;13.630;2023-06-04T05:25:53;101472.28;;;13.85;64.24
13367;BME280;6752;52.612;13.630;2023-06-04T05:30:55;101471.44;;;14.31;63.42
13367;BME280;6752;52.612;13.630;2023-06-04T05:36:03;101464.98;;;15.08;61.83
13367;BME280;6752;52.612;13.630;2023-06-04T05:41:05;101476.58;;;15.25;59.34
13367;BME280;6752;52.612;13.630;2023-06-04T05:46:08;101481.97;;;15.71;59.15
13367;BME280;6752;52.612;13.630;2023-06-04T05:51:10;101474.33;;;16.17;57.75
13367;BME280;6752;52.612;13.630;2023-06-04T05:56:12;101480.11;;;16.82;57.10
13367;BME280;6752;52.612;13.630;2023-06-04T06:01:14;101479.72;;;17.39;55.80
13367;BME280;6752;52.612;13.630;2023-06-04T06:06:17;101483.33;;;17.62;55.49
13367;BME280;6752;52.612;13.630;2023-06-04T06:11:19;101488.20;;;17.35;53.26
13367;BME280;6752;52.612;13.630;2023-06-04T06:16:21;101476.95;;;18.43;50.59
13367;BME280;6752;52.612;13.630;2023-06-04T06:21:24;101474.11;;;18.27;48.91
13367;BME280;6752;52.612;13.630;2023-06-04T06:26:26;101476.34;;;19.10;48.57
13367;BME280;6752;52.612;13.630;2023-06-04T06:31:27;101478.81;;;19.85;45.54
13367;BME280;6752;52.612;13.630;2023-06-04T06:36:30;101474.11;;;19.31;44.48
13367;BME280;6752;52.612;13.630;2023-06-04T06:41:32;101466.34;;;19.82;42.83
13367;BME280;6752;52.612;13.630;2023-06-04T06:46:34;101465.94;;;21.55;43.55
13367;BME280;6752;52.612;13.630;2023-06-04T06:51:37;101453.73;;;21.58;38.73
13367;BME280;6752;52.612;13.630;2023-06-04T06:56:39;101464.41;;;21.68;41.45
13367;BME280;6752;52.612;13.630;2023-06-04T07:01:41;101465.40;;;21.86;39.31
13367;BME280;6752;52.612;13.630;2023-06-04T07:06:43;101456.19;;;21.42;37.38
13367;BME280;6752;52.612;13.630;2023-06-04T07:11:45;101455.55;;;21.79;37.26
13367;BME280;6752;52.612;13.630;2023-06-04T07:16:47;101447.64;;;23.59;35.74
13367;BME280;6752;52.612;13.630;2023-06-04T07:21:50;101464.41;;;22.97;38.01
13367;BME280;6752;52.612;13.630;2023-06-04T07:26:52;101459.56;;;24.01;36.05
13367;BME280;6752;52.612;13.630;2023-06-04T07:31:54;101467.16;;;23.52;37.30
13367;BME280;6752;52.612;13.630;2023-06-04T07:36:57;101467.62;;;23.22;34.38
13367;BME280;6752;52.612;13.630;2023-06-04T07:41:59;101478.54;;;23.97;36.43
13367;BME280;6752;52.612;13.630;2023-06-04T07:47:02;101467.39;;;24.11;34.65
13367;BME280;6752;52.612;13.630;2023-06-04T07:52:04;101467.55;;;25.63;33.12
13367;BME280;6752;52.612;13.630;2023-06-04T07:57:06;101466.12;;;23.99;32.24
13367;BME280;6752;52.612;13.630;2023-06-04T08:02:09;101461.73;;;23.93;32.72
13367;BME280;6752;52.612;13.630;2023-06-04T08:07:11;101462.83;;;24.90;34.17
13367;BME280;6752;52.612;13.630;2023-06-04T08:12:17;101457.29;;;24.97;31.94
13367;BME280;6752;52.612;13.630;2023-06-04T08:17:19;101462.38;;;26.15;32.05
13367;BME280;6752;52.612;13.630;2023-06-04T08:22:21;101472.64;;;27.64;32.85
13367;BME280;6752;52.612;13.630;2023-06-04T08:27:24;101461.66;;;27.35;31.00
13367;BME280;6752;52.612;13.630;2023-06-04T08:32:26;101473.05;;;27.82;32.27
13367;BME280;6752;52.612;13.630;2023-06-04T08:37:28;101459.63;;;28.31;30.04
13367;BME280;6752;52.612;13.630;2023-06-04T08:42:31;101458.58;;;29.17;31.05
13367;BME280;6752;52.612;13.630;2023-06-04T08:47:33;101456.36;;;27.41;29.29
13367;BME280;6752;52.612;13.630;2023-06-04T08:52:36;101452.19;;;29.10;28.92
13367;BME280;6752;52.612;13.630;2023-06-04T08:57:38;101456.02;;;29.31;28.46
13367;BME280;6752;52.612;13.630;2023-06-04T09:02:40;101459.16;;;28.15;28.77
13367;BME280;6752;52.612;13.630;2023-06-04T09:07:43;101459.86;;;25.84;29.19
13367;BME280;6752;52.612;13.630;2023-06-04T09:12:46;101468.59;;;28.81;30.81
13367;BME280;6752;52.612;13.630;2023-06-04T09:17:48;101462.22;;;24.58;30.26
13367;BME280;6752;52.612;13.630;2023-06-04T09:22:50;101463.98;;;27.45;31.26
13367;BME280;6752;52.612;13.630;2023-06-04T09:27:52;101463.09;;;24.44;30.30
13367;BME280;6752;52.612;13.630;2023-06-04T09:32:54;101471.28;;;24.13;30.40
13367;BME280;6752;52.612;13.630;2023-06-04T09:37:56;101465.11;;;24.74;30.34
13367;BME280;6752;52.612;13.630;2023-06-04T09:42:58;101465.13;;;26.50;29.34
13367;BME280;6752;52.612;13.630;2023-06-04T09:48:00;101468.86;;;28.42;29.58
13367;BME280;6752;52.612;13.630;2023-06-04T09:53:12;101460.99;;;27.09;28.98
13367;BME280;6752;52.612;13.630;2023-06-04T09:58:05;101452.98;;;30.40;28.70
13367;BME280;6752;52.612;13.630;2023-06-04T10:03:07;101457.98;;;28.18;29.09
13367;BME280;6752;52.612;13.630;2023-06-04T10:08:09;101452.25;;;29.36;29.61
13367;BME280;6752;52.612;13.630;2023-06-04T10:13:14;101447.61;;;28.12;27.71
13367;BME280;6752;52.612;13.630;2023-06-04T10:18:14;101445.57;;;27.48;28.99
13367;BME280;6752;52.612;13.630;2023-06-04T10:23:17;101446.73;;;30.25;28.85
13367;BME280;6752;52.612;13.630;2023-06-04T10:28:19;101434.09;;;31.17;28.18
13367;BME280;6752;52.612;13.630;2023-06-04T10:33:24;101435.05;;;30.62;28.02
13367;BME280;6752;52.612;13.630;2023-06-04T10:38:26;101449.20;;;28.00;29.86
13367;BME280;6752;52.612;13.630;2023-06-04T10:43:29;101445.91;;;27.91;27.79
13367;BME280;6752;52.612;13.630;2023-06-04T10:48:30;101437.80;;;29.35;28.75
13367;BME280;6752;52.612;13.630;2023-06-04T10:53:36;101449.02;;;29.96;29.41
13367;BME280;6752;52.612;13.630;2023-06-04T10:58:34;101438.02;;;29.10;27.44
13367;BME280;6752;52.612;13.630;2023-06-04T11:03:37;101444.91;;;29.85;29.56
13367;BME280;6752;52.612;13.630;2023-06-04T11:08:39;101431.73;;;29.95;27.53
13367;BME280;6752;52.612;13.630;2023-06-04T11:13:41;101435.02;;;30.02;26.82
13367;BME280;6752;52.612;13.630;2023-06-04T11:18:49;101432.63;;;31.00;28.93
13367;BME280;6752;52.612;13.630;2023-06-04T11:23:46;101416.91;;;29.69;25.49
13367;BME280;6752;52.612;13.630;2023-06-04T11:33:58;101425.73;;;26.95;28.03
13367;BME280;6752;52.612;13.630;2023-06-04T11:39:01;101422.62;;;28.20;28.78
13367;BME280;6752;52.612;13.630;2023-06-04T11:44:03;101420.25;;;30.50;27.77
13367;BME280;6752;52.612;13.630;2023-06-04T11:49:04;101410.07;;;30.13;26.61
13367;BME280;6752;52.612;13.630;2023-06-04T11:54:07;101404.05;;;28.92;26.67
13367;BME280;6752;52.612;13.630;2023-06-04T11:59:09;101409.25;;;28.72;27.99
13367;BME280;6752;52.612;13.630;2023-06-04T12:04:16;101412.37;;;30.03;27.58
13367;BME280;6752;52.612;13.630;2023-06-04T12:09:19;101409.09;;;30.28;27.62
13367;BME280;6752;52.612;13.630;2023-06-04T12:14:17;101403.77;;;30.40;27.81
13367;BME280;6752;52.612;13.630;2023-06-04T12:19:18;101404.81;;;32.04;28.00
13367;BME280;6752;52.612;13.630;2023-06-04T12:24:21;101407.64;;;31.67;28.10
13367;BME280;6752;52.612;13.630;2023-06-04T12:29:23;101402.59;;;31.94;27.58
13367;BME280;6752;52.612;13.630;2023-06-04T12:34:26;101389.72;;;29.11;27.14
13367;BME280;6752;52.612;13.630;2023-06-04T12:39:28;101389.13;;;29.24;27.54
13367;BME280;6752;52.612;13.630;2023-06-04T12:44:30;101390.69;;;27.98;28.17
13367;BME280;6752;52.612;13.630;2023-06-04T12:49:32;101384.91;;;28.79;26.79
13367;BME280;6752;52.612;13.630;2023-06-04T12:54:34;101387.62;;;29.05;29.42
13367;BME280;6752;52.612;13.630;2023-06-04T12:59:37;101388.47;;;29.84;27.60
13367;BME280;6752;52.612;13.630;2023-06-04T13:04:39;101375.19;;;29.17;27.21
13367;BME280;6752;52.612;13.630;2023-06-04T13:09:41;101386.03;;;30.10;27.82
13367;BME280;6752;52.612;13.630;2023-06-04T13:14:43;101377.52;;;29.50;29.18
13367;BME280;6752;52.612;13.630;2023-06-04T13:19:46;101399.94;;;29.89;30.36
13367;BME280;6752;52.612;13.630;2023-06-04T13:24:48;101385.92;;;29.41;28.30
13367;BME280;6752;52.612;13.630;2023-06-04T13:29:50;101390.14;;;29.37;29.90
13367;BME280;6752;52.612;13.630;2023-06-04T13:34:52;101370.92;;;28.35;28.59
13367;BME280;6752;52.612;13.630;2023-06-04T13:39:55;101370.27;;;28.86;29.91
13367;BME280;6752;52.612;13.630;2023-06-04T13:44:57;101362.28;;;29.03;27.73
13367;BME280;6752;52.612;13.630;2023-06-04T13:49:59;101372.47;;;28.30;29.08
13367;BME280;6752;52.612;13.630;2023-06-04T13:55:02;101363.89;;;27.09;29.85
13367;BME280;6752;52.612;13.630;2023-06-04T14:00:04;101372.02;;;28.09;30.88
13367;BME280;6752;52.612;13.630;2023-06-04T14:05:07;101367.28;;;27.99;31.18
13367;BME280;6752;52.612;13.630;2023-06-04T14:10:09;101362.63;;;27.79;30.74
13367;BME280;6752;52.612;13.630;2023-06-04T14:15:11;101355.36;;;26.44;29.43
13367;BME280;6752;52.612;13.630;2023-06-04T14:20:14;101352.78;;;26.73;29.58
13367;BME280;6752;52.612;13.630;2023-06-04T14:25:16;101350.64;;;26.88;29.30
13367;BME280;6752;52.612;13.630;2023-06-04T14:30:18;101351.48;;;27.02;30.29
13367;BME280;6752;52.612;13.630;2023-06-04T14:35:20;101350.84;;;27.35;30.30
13367;BME280;6752;52.612;13.630;2023-06-04T14:40:22;101348.78;;;26.01;30.42
13367;BME280;6752;52.612;13.630;2023-06-04T14:45:25;101340.73;;;25.60;30.30
13367;BME280;6752;52.612;13.630;2023-06-04T14:50:27;101345.52;;;26.26;31.88
13367;BME280;6752;52.612;13.630;2023-06-04T14:55:29;101347.30;;;26.36;31.19
13367;BME280;6752;52.612;13.630;2023-06-04T15:00:31;101342.18;;;26.24;32.59
13367;BME280;6752;52.612;13.630;2023-06-04T15:05:34;101336.91;;;26.23;30.81
13367;BME280;6752;52.612;13.630;2023-06-04T15:10:36;101340.86;;;26.29;33.01
13367;BME280;6752;52.612;13.630;2023-06-04T15:15:39;101329.44;;;25.98;31.85
13367;BME280;6752;52.612;13.630;2023-06-04T15:20:41;101327.55;;;26.09;31.54
13367;BME280;6752;52.612;13.630;2023-06-04T15:25:43;101329.30;;;25.68;32.76
13367;BME280;6752;52.612;13.630;2023-06-04T15:30:46;101322.16;;;25.69;31.56
13367;BME280;6752;52.612;13.630;2023-06-04T15:35:51;101327.58;;;26.00;33.49
13367;BME280;6752;52.612;13.630;2023-06-04T15:40:53;101324.95;;;25.76;31.21
13367;BME280;6752;52.612;13.630;2023-06-04T15:45:55;101322.98;;;25.70;31.19
13367;BME280;6752;52.612;13.630;2023-06-04T15:50:58;101327.59;;;25.70;31.52
13367;BME280;6752;52.612;13.630;2023-06-04T15:56:00;101329.31;;;25.66;33.63
13367;BME280;6752;52.612;13.630;2023-06-04T16:01:03;101320.14;;;25.14;31.32
13367;BME280;6752;52.612;13.630;2023-06-04T16:06:05;101316.51;;;25.81;31.97
13367;BME280;6752;52.612;13.630;2023-06-04T16:11:07;101319.98;;;24.87;32.01
13367;BME280;6752;52.612;13.630;2023-06-04T16:16:10;101308.66;;;24.23;31.09
13367;BME280;6752;52.612;13.630;2023-06-04T16:21:12;101309.34;;;24.48;32.09
13367;BME280;6752;52.612;13.630;2023-06-04T16:26:14;101313.41;;;24.47;32.22
13367;BME280;6752;52.612;13.630;2023-06-04T16:31:17;101307.95;;;24.58;33.54
13367;BME280;6752;52.612;13.630;2023-06-04T16:36:19;101300.83;;;24.25;33.42
13367;BME280;6752;52.612;13.630;2023-06-04T16:41:22;101299.46;;;24.13;34.39
13367;BME280;6752;52.612;13.630;2023-06-04T16:46:24;101302.86;;;23.69;34.16
13367;BME280;6752;52.612;13.630;2023-06-04T16:51:26;101315.13;;;23.49;37.37
13367;BME280;6752;52.612;13.630;2023-06-04T16:56:29;101312.66;;;23.45;36.30
13367;BME280;6752;52.612;13.630;2023-06-04T17:01:31;101310.75;;;23.23;36.25
13367;BME280;6752;52.612;13.630;2023-06-04T17:06:34;101313.64;;;23.08;37.01
13367;BME280;6752;52.612;13.630;2023-06-04T17:11:36;101318.13;;;22.82;36.42
13367;BME280;6752;52.612;13.630;2023-06-04T17:16:38;101323.73;;;22.72;37.37
13367;BME280;6752;52.612;13.630;2023-06-04T17:21:41;101328.89;;;22.64;39.01
13367;BME280;6752;52.612;13.630;2023-06-04T17:26:43;101326.61;;;22.44;38.93
13367;BME280;6752;52.612;13.630;2023-06-04T17:31:46;101326.19;;;22.46;39.48
13367;BME280;6752;52.612;13.630;2023-06-04T17:36:48;101329.11;;;22.10;41.98
13367;BME280;6752;52.612;13.630;2023-06-04T17:41:50;101325.52;;;22.07;39.55
13367;BME280;6752;52.612;13.630;2023-06-04T17:46:53;101333.15;;;22.06;40.87
13367;BME280;6752;52.612;13.630;2023-06-04T17:51:55;101336.64;;;21.72;40.05
13367;BME280;6752;52.612;13.630;2023-06-04T17:56:57;101333.86;;;21.72;41.61
13367;BME280;6752;52.612;13.630;2023-06-04T18:02:00;101332.48;;;21.67;41.44
13367;BME280;6752;52.612;13.630;2023-06-04T18:07:02;101333.34;;;21.39;39.87
13367;BME280;6752;52.612;13.630;2023-06-04T18:12:05;101340.69;;;21.34;42.63
13367;BME280;6752;52.612;13.630;2023-06-04T18:17:07;101353.39;;;21.15;44.51
13367;BME280;6752;52.612;13.630;2023-06-04T18:22:09;101360.13;;;20.83;44.66
13367;BME280;6752;52.612;13.630;2023-06-04T18:27:11;101357.97;;;20.59;45.14
13367;BME280;6752;52.612;13.630;2023-06-04T18:32:14;101357.23;;;20.31;47.30
13367;BME280;6752;52.612;13.630;2023-06-04T18:37:16;101365.11;;;20.28;46.16
13367;BME280;6752;52.612;13.630;2023-06-04T18:42:18;101362.05;;;19.83;47.21
13367;BME280;6752;52.612;13.630;2023-06-04T18:47:21;101371.33;;;19.82;49.50
13367;BME280;6752;52.612;13.630;2023-06-04T18:52:23;101380.83;;;19.46;49.72
13367;BME280;6752;52.612;13.630;2023-06-04T18:57:25;101380.44;;;19.35;50.53
13367;BME280;6752;52.612;13.630;2023-06-04T19:02:27;101387.11;;;18.96;49.76
13367;BME280;6752;52.612;13.630;2023-06-04T19:07:30;101393.91;;;18.66;50.83
13367;BME280;6752;52.612;13.630;2023-06-04T19:12:32;101396.13;;;18.26;52.02
13367;BME280;6752;52.612;13.630;2023-06-04T19:17:35;101394.94;;;18.11;51.14
13367;BME280;6752;52.612;13.630;2023-06-04T19:22:38;101397.58;;;17.95;50.68
13367;BME280;6752;52.612;13.630;2023-06-04T19:27:41;101403.09;;;17.53;51.91
13367;BME280;6752;52.612;13.630;2023-06-04T19:32:43;101406.95;;;17.46;51.56
13367;BME280;6752;52.612;13.630;2023-06-04T19:37:46;101407.12;;;17.25;52.86
13367;BME280;6752;52.612;13.630;2023-06-04T19:42:48;101411.45;;;16.84;53.45
13367;BME280;6752;52.612;13.630;2023-06-04T19:47:50;101424.66;;;16.59;54.02
13367;BME280;6752;52.612;13.630;2023-06-04T19:52:53;101433.94;;;16.43;54.06
13367;BME280;6752;52.612;13.630;2023-06-04T19:57:55;101432.14;;;16.32;54.13
13367;BME280;6752;52.612;13.630;2023-06-04T20:02:57;101434.14;;;16.22;54.46
13367;BME280;6752;52.612;13.630;2023-06-04T20:08:00;101434.27;;;16.09;53.79
13367;BME280;6752;52.612;13.630;2023-06-04T20:13:02;101431.48;;;15.80;53.88
13367;BME280;6752;52.612;13.630;2023-06-04T20:18:05;101445.08;;;15.48;54.38
13367;BME280;6752;52.612;13.630;2023-06-04T20:23:07;101442.89;;;15.63;53.71
13367;BME280;6752;52.612;13.630;2023-06-04T20:28:09;101442.37;;;15.24;54.25
13367;BME280;6752;52.612;13.630;2023-06-04T20:33:12;101450.14;;;15.27;54.21
13367;BME280;6752;52.612;13.630;2023-06-04T20:38:14;101454.63;;;15.01;54.72
13367;BME280;6752;52.612;13.630;2023-06-04T20:43:17;101452.58;;;14.87;55.07
13367;BME280;6752;52.612;13.630;2023-06-04T20:48:19;101461.97;;;14.80;55.51
13367;BME280;6752;52.612;13.630;2023-06-04T20:53:21;101461.87;;;14.71;55.76
13367;BME280;6752;52.612;13.630;2023-06-04T20:58:24;101460.86;;;14.56;55.93
13367;BME280;6752;52.612;13.630;2023-06-04T21:03:26;101463.92;;;14.48;56.96
13367;BME280;6752;52.612;13.630;2023-06-04T21:08:29;101463.73;;;14.47;56.57
13367;BME280;6752;52.612;13.630;2023-06-04T21:13:31;101469.53;;;14.19;57.33
13367;BME280;6752;52.612;13.630;2023-06-04T21:18:33;101464.97;;;13.88;58.29
13367;BME280;6752;52.612;13.630;2023-06-04T21:23:36;101472.48;;;13.75;58.19
13367;BME280;6752;52.612;13.630;2023-06-04T21:28:38;101474.97;;;13.64;58.60
13367;BME280;6752;52.612;13.630;2023-06-04T21:33:40;101482.98;;;13.49;58.49
13367;BME280;6752;52.612;13.630;2023-06-04T21:38:43;101481.88;;;13.38;58.94
13367;BME280;6752;52.612;13.630;2023-06-04T21:43:45;101485.03;;;13.19;59.79
13367;BME280;6752;52.612;13.630;2023-06-04T21:48:48;101489.94;;;13.04;59.88
13367;BME280;6752;52.612;13.630;2023-06-04T21:53:50;101487.73;;;12.78;60.61
13367;BME280;6752;52.612;13.630;2023-06-04T21:58:52;101491.31;;;12.68;61.18
13367;BME280;6752;52.612;13.630;2023-06-04T22:03:55;101495.16;;;12.54;61.52
13367;BME280;6752;52.612;13.630;2023-06-04T22:08:57;101497.80;;;12.42;62.44
13367;BME280;6752;52.612;13.630;2023-06-04T22:13:59;101496.47;;;12.15;62.47
13367;BME280;6752;52.612;13.630;2023-06-04T22:19:02;101492.45;;;12.24;60.86
13367;BME280;6752;52.612;13.630;2023-06-04T22:24:04;101486.37;;;12.19;61.29
13367;BME280;6752;52.612;13.630;2023-06-04T22:29:07;101487.44;;;12.11;61.12
13367;BME280;6752;52.612;13.630;2023-06-04T22:34:09;101488.48;;;11.97;62.51
13367;BME280;6752;52.612;13.630;2023-06-04T22:39:11;101497.27;;;11.69;63.66
13367;BME280;6752;52.612;13.630;2023-06-04T22:44:13;101499.95;;;11.50;64.35
13367;BME280;6752;52.612;13.630;2023-06-04T22:50:38;101494.22;;;11.21;65.28
13367;BME280;6752;52.612;13.630;2023-06-04T22:55:40;101491.39;;;11.22;64.14
13367;BME280;6752;52.612;13.630;2023-06-04T23:00:43;101499.73;;;10.87;66.30
13367;BME280;6752;52.612;13.630;2023-06-04T23:05:45;101496.98;;;10.80;67.00
13367;BME280;6752;52.612;13.630;2023-06-04T23:10:48;101508.05;;;10.66;67.68
13367;BME280;6752;52.612;13.630;2023-06-04T23:15:50;101502.34;;;10.84;69.01
13367;BME280;6752;52.612;13.630;2023-06-04T23:20:52;101503.27;;;11.01;66.50
13367;BME280;6752;52.612;13.630;2023-06-04T23:25:56;101512.16;;;10.89;66.34
13367;BME280;6752;52.612;13.630;2023-06-04T23:30:58;101511.52;;;10.70;67.40
13367;BME280;6752;52.612;13.630;2023-06-04T23:36:00;101514.99;;;10.71;67.99
13367;BME280;6752;52.612;13.630;2023-06-04T23:41:03;101513.62;;;10.40;68.69
13367;BME280;6752;52.612;13.630;2023-06-04T23:46:05;101519.05;;;10.37;71.49
13367;BME280;6752;52.612;13.630;2023-06-04T23:51:08;101516.09;;;10.46;70.02
13367;BME280;6752;52.612;13.630;2023-06-04T23:56:10;101519.00;;;10.27;71.83
